sensor_id;sensor_type;location;lat;lon;timestamp;pressure;altitude;pressure_sealevel;temperature;humidity
47522;BME280;32291;52.010;4.446;2023-06-22T00:00:58;78105.56;;;-144.67;100.00
47522;BME280;32291;52.010;4.446;2023-06-22T00:02:00;78107.69;;;-144.67;100.00
47522;BME280;32291;52.010;4.446;2023-06-22T00:03:02;78111.97;;;-144.67;100.00
47522;BME280;32291;52.010;4.446;2023-06-22T00:04:04;78111.97;;;-144.67;100.00
47522;BME280;32291;52.010;4.446;2023-06-22T00:05:06;78109.84;;;-144.67;100.00
47522;BME280;32291;52.010;4.446;2023-06-22T00:06:08;78116.25;;;-144.67;100.00
47522;BME280;32291;52.010;4.446;2023-06-22T00:07:10;78116.25;;;-144.67;100.00
47522;BME280;32291;52.010;4.446;2023-06-22T00:08:12;78116.25;;;-144.67;100.00
47522;BME280;32291;52.010;4.446;2023-06-22T00:09:13;78116.25;;;-144.67;100.00
47522;BME280;32291;52.010;4.446;2023-06-22T00:10:15;78111.97;;;-144.67;100.00
47522;BME280;32291;52.010;4.446;2023-06-22T00:11:16;78116.25;;;-144.67;100.00
47522;BME280;32291;52.010;4.446;2023-06-22T00:12:18;78116.25;;;-144.67;100.00
47522;BME280;32291;52.010;4.446;2023-06-22T00:13:19;78124.81;;;-144.67;100.00
47522;BME280;32291;52.010;4.446;2023-06-22T00:14:21;78122.69;;;-144.67;100.00
47522;BME280;32291;52.010;4.446;2023-06-22T00:15:23;78120.53;;;-144.67;100.00
47522;BME280;32291;52.010;4.446;2023-06-22T00:16:25;78122.69;;;-144.67;100.00
47522;BME280;32291;52.010;4.446;2023-06-22T00:17:26;78120.53;;;-144.67;100.00
47522;BME280;32291;52.010;4.446;2023-06-22T00:18:28;78120.53;;;-144.67;100.00
47522;BME280;32291;52.010;4.446;2023-06-22T00:19:31;78129.09;;;-144.67;100.00
47522;BME280;32291;52.010;4.446;2023-06-22T00:20:33;78122.69;;;-144.67;100.00
47522;BME280;32291;52.010;4.446;2023-06-22T00:21:38;78118.41;;;-144.67;100.00
47522;BME280;32291;52.010;4.446;2023-06-22T00:22:39;78116.25;;;-144.67;100.00
47522;BME280;32291;52.010;4.446;2023-06-22T00:23:41;78124.81;;;-144.67;100.00
47522;BME280;32291;52.010;4.446;2023-06-22T00:24:42;78120.53;;;-144.67;100.00
47522;BME280;32291;52.010;4.446;2023-06-22T00:25:46;78129.09;;;-144.67;100.00
47522;BME280;32291;52.010;4.446;2023-06-22T00:26:48;78126.97;;;-144.67;100.00
47522;BME280;32291;52.010;4.446;2023-06-22T00:27:50;78137.66;;;-144.67;100.00
47522;BME280;32291;52.010;4.446;2023-06-22T00:28:51;78135.53;;;-144.67;100.00
47522;BME280;32291;52.010;4.446;2023-06-22T00:29:53;78146.22;;;-144.67;100.00
47522;BME280;32291;52.010;4.446;2023-06-22T00:30:54;78137.66;;;-144.67;100.00
47522;BME280;32291;52.010;4.446;2023-06-22T00:31:56;78141.94;;;-144.67;100.00
47522;BME280;32291;52.010;4.446;2023-06-22T00:32:58;78139.81;;;-144.67;100.00
47522;BME280;32291;52.010;4.446;2023-06-22T00:34:00;78139.81;;;-144.67;100.00
47522;BME280;32291;52.010;4.446;2023-06-22T00:35:04;78139.81;;;-144.67;100.00
47522;BME280;32291;52.010;4.446;2023-06-22T00:36:07;78141.94;;;-144.67;100.00
47522;BME280;32291;52.010;4.446;2023-06-22T00:37:09;78144.09;;;-144.67;100.00
47522;BME280;32291;52.010;4.446;2023-06-22T00:38:12;78135.53;;;-144.67;100.00
47522;BME280;32291;52.010;4.446;2023-06-22T00:39:14;78137.66;;;-144.67;100.00
47522;BME280;32291;52.010;4.446;2023-06-22T00:40:15;78129.09;;;-144.67;100.00
47522;BME280;32291;52.010;4.446;2023-06-22T00:41:18;78124.81;;;-144.67;100.00
47522;BME280;32291;52.010;4.446;2023-06-22T00:42:20;78133.38;;;-144.67;100.00
47522;BME280;32291;52.010;4.446;2023-06-22T00:43:21;78129.09;;;-144.67;100.00
47522;BME280;32291;52.010;4.446;2023-06-22T00:44:23;78124.81;;;-144.67;100.00
47522;BME280;32291;52.010;4.446;2023-06-22T00:45:25;78122.69;;;-144.67;100.00
47522;BME280;32291;52.010;4.446;2023-06-22T00:46:27;78129.09;;;-144.67;100.00
47522;BME280;32291;52.010;4.446;2023-06-22T00:47:29;78129.09;;;-144.67;100.00
47522;BME280;32291;52.010;4.446;2023-06-22T00:48:30;78124.81;;;-144.67;100.00
47522;BME280;32291;52.010;4.446;2023-06-22T00:49:32;78122.69;;;-144.67;100.00
47522;BME280;32291;52.010;4.446;2023-06-22T00:50:34;78118.41;;;-144.67;100.00
47522;BME280;32291;52.010;4.446;2023-06-22T00:51:39;78120.53;;;-144.67;100.00
47522;BME280;32291;52.010;4.446;2023-06-22T00:52:57;78111.97;;;-144.67;100.00
47522;BME280;32291;52.010;4.446;2023-06-22T00:53:59;78120.53;;;-144.67;100.00
47522;BME280;32291;52.010;4.446;2023-06-22T00:55:03;78120.53;;;-144.67;100.00
47522;BME280;32291;52.010;4.446;2023-06-22T00:56:05;78120.53;;;-144.67;100.00
47522;BME280;32291;52.010;4.446;2023-06-22T00:57:07;78129.09;;;-144.67;100.00
47522;BME280;32291;52.010;4.446;2023-06-22T00:58:13;78120.53;;;-144.67;100.00
47522;BME280;32291;52.010;4.446;2023-06-22T00:59:15;78126.97;;;-144.67;100.00
47522;BME280;32291;52.010;4.446;2023-06-22T01:00:18;78122.69;;;-144.67;100.00
47522;BME280;32291;52.010;4.446;2023-06-22T01:01:21;78120.53;;;-144.67;100.00
47522;BME280;32291;52.010;4.446;2023-06-22T01:02:24;78124.81;;;-144.67;100.00
47522;BME280;32291;52.010;4.446;2023-06-22T01:03:26;78126.97;;;-144.67;100.00
47522;BME280;32291;52.010;4.446;2023-06-22T01:04:36;78126.97;;;-144.67;100.00
47522;BME280;32291;52.010;4.446;2023-06-22T01:05:39;78129.09;;;-144.67;100.00
47522;BME280;32291;52.010;4.446;2023-06-22T01:08:45;78131.25;;;-144.67;100.00
47522;BME280;32291;52.010;4.446;2023-06-22T01:09:59;78131.25;;;-144.67;100.00
47522;BME280;32291;52.010;4.446;2023-06-22T01:11:23;78129.09;;;-144.67;100.00
47522;BME280;32291;52.010;4.446;2023-06-22T01:12:34;78129.09;;;-144.67;100.00
47522;BME280;32291;52.010;4.446;2023-06-22T01:14:05;78135.53;;;-144.67;100.00
47522;BME280;32291;52.010;4.446;2023-06-22T01:15:21;78137.66;;;-144.67;100.00
47522;BME280;32291;52.010;4.446;2023-06-22T01:16:35;78137.66;;;-144.67;100.00
47522;BME280;32291;52.010;4.446;2023-06-22T01:17:41;78139.81;;;-144.67;100.00
47522;BME280;32291;52.010;4.446;2023-06-22T01:18:46;78137.66;;;-144.67;100.00
47522;BME280;32291;52.010;4.446;2023-06-22T01:19:55;78150.50;;;-144.67;100.00
47522;BME280;32291;52.010;4.446;2023-06-22T01:20:58;78137.66;;;-144.67;100.00
47522;BME280;32291;52.010;4.446;2023-06-22T01:22:03;78137.66;;;-144.67;100.00
47522;BME280;32291;52.010;4.446;2023-06-22T01:25:10;78141.94;;;-144.67;100.00
47522;BME280;32291;52.010;4.446;2023-06-22T01:26:20;78137.66;;;-144.67;100.00
47522;BME280;32291;52.010;4.446;2023-06-22T01:28:54;78135.53;;;-144.67;100.00
47522;BME280;32291;52.010;4.446;2023-06-22T01:29:58;78141.94;;;-144.67;100.00
47522;BME280;32291;52.010;4.446;2023-06-22T01:31:02;78144.09;;;-144.67;100.00
47522;BME280;32291;52.010;4.446;2023-06-22T01:32:10;78137.66;;;-144.67;100.00
47522;BME280;32291;52.010;4.446;2023-06-22T01:33:14;78144.09;;;-144.67;100.00
47522;BME280;32291;52.010;4.446;2023-06-22T01:34:17;78146.22;;;-144.67;100.00
47522;BME280;32291;52.010;4.446;2023-06-22T01:35:21;78144.09;;;-144.67;100.00
47522;BME280;32291;52.010;4.446;2023-06-22T01:36:25;78150.50;;;-144.67;100.00
47522;BME280;32291;52.010;4.446;2023-06-22T01:37:29;78148.38;;;-144.67;100.00
47522;BME280;32291;52.010;4.446;2023-06-22T01:38:32;78148.38;;;-144.67;100.00
47522;BME280;32291;52.010;4.446;2023-06-22T01:39:35;78148.38;;;-144.67;100.00
47522;BME280;32291;52.010;4.446;2023-06-22T01:40:39;78154.78;;;-144.67;100.00
47522;BME280;32291;52.010;4.446;2023-06-22T01:41:43;78154.78;;;-144.67;100.00
47522;BME280;32291;52.010;4.446;2023-06-22T01:42:45;78150.50;;;-144.67;100.00
47522;BME280;32291;52.010;4.446;2023-06-22T01:43:48;78154.78;;;-144.67;100.00
47522;BME280;32291;52.010;4.446;2023-06-22T01:44:53;78159.06;;;-144.67;100.00
47522;BME280;32291;52.010;4.446;2023-06-22T01:45:58;78159.06;;;-144.67;100.00
47522;BME280;32291;52.010;4.446;2023-06-22T01:46:59;78161.22;;;-144.67;100.00
47522;BME280;32291;52.010;4.446;2023-06-22T01:48:02;78161.22;;;-144.67;100.00
47522;BME280;32291;52.010;4.446;2023-06-22T01:49:05;78161.22;;;-144.67;100.00
47522;BME280;32291;52.010;4.446;2023-06-22T01:50:08;78174.06;;;-144.67;100.00
47522;BME280;32291;52.010;4.446;2023-06-22T01:51:10;78171.91;;;-144.67;100.00
47522;BME280;32291;52.010;4.446;2023-06-22T01:52:11;78165.50;;;-144.67;100.00
47522;BME280;32291;52.010;4.446;2023-06-22T01:53:13;78167.63;;;-144.67;100.00
47522;BME280;32291;52.010;4.446;2023-06-22T01:54:14;78169.78;;;-144.67;100.00
47522;BME280;32291;52.010;4.446;2023-06-22T01:55:16;78171.91;;;-144.67;100.00
47522;BME280;32291;52.010;4.446;2023-06-22T01:56:18;78165.50;;;-144.67;100.00
47522;BME280;32291;52.010;4.446;2023-06-22T01:57:20;78159.06;;;-144.67;100.00
47522;BME280;32291;52.010;4.446;2023-06-22T01:58:26;78161.22;;;-144.67;100.00
47522;BME280;32291;52.010;4.446;2023-06-22T01:59:34;78161.22;;;-144.67;100.00
47522;BME280;32291;52.010;4.446;2023-06-22T02:00:52;78167.63;;;-144.67;100.00
47522;BME280;32291;52.010;4.446;2023-06-22T02:02:02;78163.34;;;-144.67;100.00
47522;BME280;32291;52.010;4.446;2023-06-22T02:03:19;78161.22;;;-144.67;100.00
47522;BME280;32291;52.010;4.446;2023-06-22T02:04:31;78159.06;;;-144.67;100.00
47522;BME280;32291;52.010;4.446;2023-06-22T02:05:45;78161.22;;;-144.67;100.00
47522;BME280;32291;52.010;4.446;2023-06-22T02:06:56;78159.06;;;-144.67;100.00
47522;BME280;32291;52.010;4.446;2023-06-22T02:08:09;78163.34;;;-144.67;100.00
47522;BME280;32291;52.010;4.446;2023-06-22T02:09:16;78167.63;;;-144.67;100.00
47522;BME280;32291;52.010;4.446;2023-06-22T02:10:21;78167.63;;;-144.67;100.00
47522;BME280;32291;52.010;4.446;2023-06-22T02:11:25;78167.63;;;-144.67;100.00
47522;BME280;32291;52.010;4.446;2023-06-22T02:12:30;78169.78;;;-144.67;100.00
47522;BME280;32291;52.010;4.446;2023-06-22T02:13:33;78169.78;;;-144.67;100.00
47522;BME280;32291;52.010;4.446;2023-06-22T02:14:36;78171.91;;;-144.67;100.00
47522;BME280;32291;52.010;4.446;2023-06-22T02:15:42;78171.91;;;-144.67;100.00
47522;BME280;32291;52.010;4.446;2023-06-22T02:16:45;78174.06;;;-144.67;100.00
47522;BME280;32291;52.010;4.446;2023-06-22T02:17:48;78176.19;;;-144.67;100.00
47522;BME280;32291;52.010;4.446;2023-06-22T02:18:51;78174.06;;;-144.67;100.00
47522;BME280;32291;52.010;4.446;2023-06-22T02:19:52;78174.06;;;-144.67;100.00
47522;BME280;32291;52.010;4.446;2023-06-22T02:20:54;78171.91;;;-144.67;100.00
47522;BME280;32291;52.010;4.446;2023-06-22T02:21:55;78176.19;;;-144.67;100.00
47522;BME280;32291;52.010;4.446;2023-06-22T02:22:57;78182.63;;;-144.67;100.00
47522;BME280;32291;52.010;4.446;2023-06-22T02:23:59;78176.19;;;-144.67;100.00
47522;BME280;32291;52.010;4.446;2023-06-22T02:25:00;78171.91;;;-144.67;100.00
47522;BME280;32291;52.010;4.446;2023-06-22T02:26:03;78176.19;;;-144.67;100.00
47522;BME280;32291;52.010;4.446;2023-06-22T02:27:07;78174.06;;;-144.67;100.00
47522;BME280;32291;52.010;4.446;2023-06-22T02:28:08;78171.91;;;-144.67;100.00
47522;BME280;32291;52.010;4.446;2023-06-22T02:29:10;78178.34;;;-144.67;100.00
47522;BME280;32291;52.010;4.446;2023-06-22T02:30:12;78171.91;;;-144.67;100.00
47522;BME280;32291;52.010;4.446;2023-06-22T02:31:16;78171.91;;;-144.67;100.00
47522;BME280;32291;52.010;4.446;2023-06-22T02:32:17;78171.91;;;-144.67;100.00
47522;BME280;32291;52.010;4.446;2023-06-22T02:33:19;78167.63;;;-144.67;100.00
47522;BME280;32291;52.010;4.446;2023-06-22T02:34:22;78176.19;;;-144.67;100.00
47522;BME280;32291;52.010;4.446;2023-06-22T02:35:25;78169.78;;;-144.67;100.00
47522;BME280;32291;52.010;4.446;2023-06-22T02:36:27;78167.63;;;-144.67;100.00
47522;BME280;32291;52.010;4.446;2023-06-22T02:37:32;78167.63;;;-144.67;100.00
47522;BME280;32291;52.010;4.446;2023-06-22T02:38:33;78169.78;;;-144.67;100.00
47522;BME280;32291;52.010;4.446;2023-06-22T02:39:36;78180.47;;;-144.67;100.00
47522;BME280;32291;52.010;4.446;2023-06-22T02:40:38;78176.19;;;-144.67;100.00
47522;BME280;32291;52.010;4.446;2023-06-22T02:41:39;78184.75;;;-144.67;100.00
47522;BME280;32291;52.010;4.446;2023-06-22T02:42:41;78186.91;;;-144.67;100.00
47522;BME280;32291;52.010;4.446;2023-06-22T02:43:42;78193.31;;;-144.67;100.00
47522;BME280;32291;52.010;4.446;2023-06-22T02:44:44;78180.47;;;-144.67;100.00
47522;BME280;32291;52.010;4.446;2023-06-22T02:45:46;78184.75;;;-144.67;100.00
47522;BME280;32291;52.010;4.446;2023-06-22T02:46:49;78184.75;;;-144.67;100.00
47522;BME280;32291;52.010;4.446;2023-06-22T02:47:52;78184.75;;;-144.67;100.00
47522;BME280;32291;52.010;4.446;2023-06-22T02:48:53;78186.91;;;-144.67;100.00
47522;BME280;32291;52.010;4.446;2023-06-22T02:49:55;78189.03;;;-144.67;100.00
47522;BME280;32291;52.010;4.446;2023-06-22T02:50:56;78184.75;;;-144.67;100.00
47522;BME280;32291;52.010;4.446;2023-06-22T02:51:58;78193.31;;;-144.67;100.00
47522;BME280;32291;52.010;4.446;2023-06-22T02:52:59;78189.03;;;-144.67;100.00
47522;BME280;32291;52.010;4.446;2023-06-22T02:54:01;78184.75;;;-144.67;100.00
47522;BME280;32291;52.010;4.446;2023-06-22T02:55:03;78189.03;;;-144.67;100.00
47522;BME280;32291;52.010;4.446;2023-06-22T02:56:04;78180.47;;;-144.67;100.00
47522;BME280;32291;52.010;4.446;2023-06-22T02:57:09;78189.03;;;-144.67;100.00
47522;BME280;32291;52.010;4.446;2023-06-22T02:58:14;78180.47;;;-144.67;100.00
47522;BME280;32291;52.010;4.446;2023-06-22T02:59:16;78182.63;;;-144.67;100.00
47522;BME280;32291;52.010;4.446;2023-06-22T03:00:18;78184.75;;;-144.67;100.00
47522;BME280;32291;52.010;4.446;2023-06-22T03:01:20;78184.75;;;-144.67;100.00
47522;BME280;32291;52.010;4.446;2023-06-22T03:02:25;78184.75;;;-144.67;100.00
47522;BME280;32291;52.010;4.446;2023-06-22T03:03:27;78191.19;;;-144.67;100.00
47522;BME280;32291;52.010;4.446;2023-06-22T03:04:29;78189.03;;;-144.67;100.00
47522;BME280;32291;52.010;4.446;2023-06-22T03:05:32;78189.03;;;-144.67;100.00
47522;BME280;32291;52.010;4.446;2023-06-22T03:06:34;78191.19;;;-144.67;100.00
47522;BME280;32291;52.010;4.446;2023-06-22T03:07:35;78193.31;;;-144.67;100.00
47522;BME280;32291;52.010;4.446;2023-06-22T03:08:38;78197.59;;;-144.67;100.00
47522;BME280;32291;52.010;4.446;2023-06-22T03:09:39;78206.19;;;-144.67;100.00
47522;BME280;32291;52.010;4.446;2023-06-22T03:10:42;78206.19;;;-144.67;100.00
47522;BME280;32291;52.010;4.446;2023-06-22T03:11:46;78208.31;;;-144.67;100.00
47522;BME280;32291;52.010;4.446;2023-06-22T03:12:47;78210.47;;;-144.67;100.00
47522;BME280;32291;52.010;4.446;2023-06-22T03:13:49;78197.59;;;-144.67;100.00
47522;BME280;32291;52.010;4.446;2023-06-22T03:14:50;78204.03;;;-144.67;100.00
47522;BME280;32291;52.010;4.446;2023-06-22T03:15:52;78210.47;;;-144.67;100.00
47522;BME280;32291;52.010;4.446;2023-06-22T03:16:53;78199.75;;;-144.67;100.00
47522;BME280;32291;52.010;4.446;2023-06-22T03:17:55;78195.47;;;-144.67;100.00
47522;BME280;32291;52.010;4.446;2023-06-22T03:18:56;78206.19;;;-144.67;100.00
47522;BME280;32291;52.010;4.446;2023-06-22T03:19:58;78201.91;;;-144.67;100.00
47522;BME280;32291;52.010;4.446;2023-06-22T03:21:01;78204.03;;;-144.67;100.00
47522;BME280;32291;52.010;4.446;2023-06-22T03:22:04;78201.91;;;-144.67;100.00
47522;BME280;32291;52.010;4.446;2023-06-22T03:23:05;78199.75;;;-144.67;100.00
47522;BME280;32291;52.010;4.446;2023-06-22T03:24:07;78206.19;;;-144.67;100.00
47522;BME280;32291;52.010;4.446;2023-06-22T03:25:09;78206.19;;;-144.67;100.00
47522;BME280;32291;52.010;4.446;2023-06-22T03:26:13;78210.47;;;-144.67;100.00
47522;BME280;32291;52.010;4.446;2023-06-22T03:27:14;78206.19;;;-144.67;100.00
47522;BME280;32291;52.010;4.446;2023-06-22T03:28:16;78208.31;;;-144.67;100.00
47522;BME280;32291;52.010;4.446;2023-06-22T03:29:19;78201.91;;;-144.67;100.00
47522;BME280;32291;52.010;4.446;2023-06-22T03:30:21;78197.59;;;-144.67;100.00
47522;BME280;32291;52.010;4.446;2023-06-22T03:31:23;78193.31;;;-144.67;100.00
47522;BME280;32291;52.010;4.446;2023-06-22T03:32:25;78197.59;;;-144.67;100.00
47522;BME280;32291;52.010;4.446;2023-06-22T03:33:29;78189.03;;;-144.67;100.00
47522;BME280;32291;52.010;4.446;2023-06-22T03:34:30;78193.31;;;-144.67;100.00
47522;BME280;32291;52.010;4.446;2023-06-22T03:35:35;78189.03;;;-144.67;100.00
47522;BME280;32291;52.010;4.446;2023-06-22T03:36:38;78186.91;;;-144.67;100.00
47522;BME280;32291;52.010;4.446;2023-06-22T03:37:40;78191.19;;;-144.67;100.00
47522;BME280;32291;52.010;4.446;2023-06-22T03:38:42;78189.03;;;-144.67;100.00
47522;BME280;32291;52.010;4.446;2023-06-22T03:39:46;78189.03;;;-144.67;100.00
47522;BME280;32291;52.010;4.446;2023-06-22T03:40:47;78184.75;;;-144.67;100.00
47522;BME280;32291;52.010;4.446;2023-06-22T03:41:49;78184.75;;;-144.67;100.00
47522;BME280;32291;52.010;4.446;2023-06-22T03:42:50;78184.75;;;-144.67;100.00
47522;BME280;32291;52.010;4.446;2023-06-22T03:43:52;78184.75;;;-144.67;100.00
47522;BME280;32291;52.010;4.446;2023-06-22T03:44:53;78182.63;;;-144.67;100.00
47522;BME280;32291;52.010;4.446;2023-06-22T03:45:55;78193.31;;;-144.67;100.00
47522;BME280;32291;52.010;4.446;2023-06-22T03:46:56;78191.19;;;-144.67;100.00
47522;BME280;32291;52.010;4.446;2023-06-22T03:47:58;78197.59;;;-144.67;100.00
47522;BME280;32291;52.010;4.446;2023-06-22T03:48:59;78195.47;;;-144.67;100.00
47522;BME280;32291;52.010;4.446;2023-06-22T03:50:01;78197.59;;;-144.67;100.00
47522;BME280;32291;52.010;4.446;2023-06-22T03:51:04;78193.31;;;-144.67;100.00
47522;BME280;32291;52.010;4.446;2023-06-22T03:52:06;78197.59;;;-144.67;100.00
47522;BME280;32291;52.010;4.446;2023-06-22T03:53:08;78199.75;;;-144.67;100.00
47522;BME280;32291;52.010;4.446;2023-06-22T03:54:09;78199.75;;;-144.67;100.00
47522;BME280;32291;52.010;4.446;2023-06-22T03:55:11;78199.75;;;-144.67;100.00
47522;BME280;32291;52.010;4.446;2023-06-22T03:56:12;78201.91;;;-144.67;100.00
47522;BME280;32291;52.010;4.446;2023-06-22T03:57:14;78206.19;;;-144.67;100.00
47522;BME280;32291;52.010;4.446;2023-06-22T03:58:16;78195.47;;;-144.67;100.00
47522;BME280;32291;52.010;4.446;2023-06-22T03:59:20;78201.91;;;-144.67;100.00
47522;BME280;32291;52.010;4.446;2023-06-22T04:00:21;78206.19;;;-144.67;100.00
47522;BME280;32291;52.010;4.446;2023-06-22T04:01:23;78197.59;;;-144.67;100.00
47522;BME280;32291;52.010;4.446;2023-06-22T04:02:25;78206.19;;;-144.67;100.00
47522;BME280;32291;52.010;4.446;2023-06-22T04:03:27;78197.59;;;-144.67;100.00
47522;BME280;32291;52.010;4.446;2023-06-22T04:04:28;78195.47;;;-144.67;100.00
47522;BME280;32291;52.010;4.446;2023-06-22T04:05:30;78191.19;;;-144.67;100.00
47522;BME280;32291;52.010;4.446;2023-06-22T04:06:34;78191.19;;;-144.67;100.00
47522;BME280;32291;52.010;4.446;2023-06-22T04:07:35;78189.03;;;-144.67;100.00
47522;BME280;32291;52.010;4.446;2023-06-22T04:08:38;78193.31;;;-144.67;100.00
47522;BME280;32291;52.010;4.446;2023-06-22T04:09:39;78193.31;;;-144.67;100.00
47522;BME280;32291;52.010;4.446;2023-06-22T04:10:41;78184.75;;;-144.67;100.00
47522;BME280;32291;52.010;4.446;2023-06-22T04:11:42;78184.75;;;-144.67;100.00
47522;BME280;32291;52.010;4.446;2023-06-22T04:12:44;78178.34;;;-144.67;100.00
47522;BME280;32291;52.010;4.446;2023-06-22T04:13:46;78176.19;;;-144.67;100.00
47522;BME280;32291;52.010;4.446;2023-06-22T04:14:47;78174.06;;;-144.67;100.00
47522;BME280;32291;52.010;4.446;2023-06-22T04:15:49;78178.34;;;-144.67;100.00
47522;BME280;32291;52.010;4.446;2023-06-22T04:16:51;78167.63;;;-144.67;100.00
47522;BME280;32291;52.010;4.446;2023-06-22T04:17:55;78167.63;;;-144.67;100.00
47522;BME280;32291;52.010;4.446;2023-06-22T04:18:56;78167.63;;;-144.67;100.00
47522;BME280;32291;52.010;4.446;2023-06-22T04:20:00;78171.91;;;-144.67;100.00
47522;BME280;32291;52.010;4.446;2023-06-22T04:21:04;78163.34;;;-144.67;100.00
47522;BME280;32291;52.010;4.446;2023-06-22T04:22:06;78163.34;;;-144.67;100.00
47522;BME280;32291;52.010;4.446;2023-06-22T04:23:08;78163.34;;;-144.67;100.00
47522;BME280;32291;52.010;4.446;2023-06-22T04:24:11;78156.94;;;-144.67;100.00
47522;BME280;32291;52.010;4.446;2023-06-22T04:25:12;78148.38;;;-144.67;100.00
47522;BME280;32291;52.010;4.446;2023-06-22T04:26:14;78152.66;;;-144.67;100.00
47522;BME280;32291;52.010;4.446;2023-06-22T04:27:15;78150.50;;;-144.67;100.00
47522;BME280;32291;52.010;4.446;2023-06-22T04:28:17;78148.38;;;-144.67;100.00
47522;BME280;32291;52.010;4.446;2023-06-22T04:29:18;78144.09;;;-144.67;100.00
47522;BME280;32291;52.010;4.446;2023-06-22T04:30:20;78146.22;;;-144.67;100.00
47522;BME280;32291;52.010;4.446;2023-06-22T04:31:22;78137.66;;;-144.67;100.00
47522;BME280;32291;52.010;4.446;2023-06-22T04:32:35;78137.66;;;-144.67;100.00
47522;BME280;32291;52.010;4.446;2023-06-22T04:33:43;78133.38;;;-144.67;100.00
47522;BME280;32291;52.010;4.446;2023-06-22T04:34:45;78131.25;;;-144.67;100.00
47522;BME280;32291;52.010;4.446;2023-06-22T04:35:46;78126.97;;;-144.67;100.00
47522;BME280;32291;52.010;4.446;2023-06-22T04:36:49;78129.09;;;-144.67;100.00
47522;BME280;32291;52.010;4.446;2023-06-22T04:37:53;78129.09;;;-144.67;100.00
47522;BME280;32291;52.010;4.446;2023-06-22T04:38:55;78126.97;;;-144.67;100.00
47522;BME280;32291;52.010;4.446;2023-06-22T04:39:58;78124.81;;;-144.67;100.00
47522;BME280;32291;52.010;4.446;2023-06-22T04:41:00;78126.97;;;-144.67;100.00
47522;BME280;32291;52.010;4.446;2023-06-22T04:42:12;78116.25;;;-144.67;100.00
47522;BME280;32291;52.010;4.446;2023-06-22T04:43:15;78103.41;;;-144.67;100.00
47522;BME280;32291;52.010;4.446;2023-06-22T04:44:20;78107.69;;;-144.67;100.00
47522;BME280;32291;52.010;4.446;2023-06-22T04:45:29;78099.13;;;-144.67;100.00
47522;BME280;32291;52.010;4.446;2023-06-22T04:46:30;78103.41;;;-144.67;100.00
47522;BME280;32291;52.010;4.446;2023-06-22T04:47:32;78099.13;;;-144.67;100.00
47522;BME280;32291;52.010;4.446;2023-06-22T04:48:33;78090.56;;;-144.67;100.00
47522;BME280;32291;52.010;4.446;2023-06-22T04:49:36;78086.28;;;-144.67;100.00
47522;BME280;32291;52.010;4.446;2023-06-22T04:50:38;78082.00;;;-144.67;100.00
47522;BME280;32291;52.010;4.446;2023-06-22T04:51:41;78067.03;;;-144.67;100.00
47522;BME280;32291;52.010;4.446;2023-06-22T04:52:43;78075.59;;;-144.67;100.00
47522;BME280;32291;52.010;4.446;2023-06-22T04:53:45;78069.16;;;-144.67;100.00
47522;BME280;32291;52.010;4.446;2023-06-22T04:54:48;78073.44;;;-144.67;100.00
47522;BME280;32291;52.010;4.446;2023-06-22T04:55:51;78071.31;;;-144.67;100.00
47522;BME280;32291;52.010;4.446;2023-06-22T04:56:54;78073.44;;;-144.67;100.00
47522;BME280;32291;52.010;4.446;2023-06-22T04:57:59;78069.16;;;-144.67;100.00
47522;BME280;32291;52.010;4.446;2023-06-22T04:59:06;78058.44;;;-144.67;100.00
47522;BME280;32291;52.010;4.446;2023-06-22T05:00:08;78060.59;;;-144.67;100.00
47522;BME280;32291;52.010;4.446;2023-06-22T05:01:18;78056.31;;;-144.67;100.00
47522;BME280;32291;52.010;4.446;2023-06-22T05:02:20;78047.75;;;-144.67;100.00
47522;BME280;32291;52.010;4.446;2023-06-22T05:03:24;78047.75;;;-144.67;100.00
47522;BME280;32291;52.010;4.446;2023-06-22T05:04:28;78047.75;;;-144.67;100.00
47522;BME280;32291;52.010;4.446;2023-06-22T05:05:32;78047.75;;;-144.67;100.00
47522;BME280;32291;52.010;4.446;2023-06-22T05:06:34;78037.03;;;-144.67;100.00
47522;BME280;32291;52.010;4.446;2023-06-22T05:07:36;78032.75;;;-144.67;100.00
47522;BME280;32291;52.010;4.446;2023-06-22T05:08:38;78030.63;;;-144.67;100.00
47522;BME280;32291;52.010;4.446;2023-06-22T05:09:39;78026.34;;;-144.67;100.00
47522;BME280;32291;52.010;4.446;2023-06-22T05:10:41;78026.34;;;-144.67;100.00
47522;BME280;32291;52.010;4.446;2023-06-22T05:11:46;78017.78;;;-144.67;100.00
47522;BME280;32291;52.010;4.446;2023-06-22T05:12:48;78017.78;;;-144.67;100.00
47522;BME280;32291;52.010;4.446;2023-06-22T05:13:49;78013.50;;;-144.67;100.00
47522;BME280;32291;52.010;4.446;2023-06-22T05:14:50;78013.50;;;-144.67;100.00
47522;BME280;32291;52.010;4.446;2023-06-22T05:15:52;78004.94;;;-144.67;100.00
47522;BME280;32291;52.010;4.446;2023-06-22T05:16:54;78004.94;;;-144.67;100.00
47522;BME280;32291;52.010;4.446;2023-06-22T05:17:55;77998.50;;;-144.67;100.00
47522;BME280;32291;52.010;4.446;2023-06-22T05:18:57;77992.09;;;-144.67;100.00
47522;BME280;32291;52.010;4.446;2023-06-22T05:19:58;77987.81;;;-144.67;100.00
47522;BME280;32291;52.010;4.446;2023-06-22T05:21:03;77983.53;;;-144.67;100.00
47522;BME280;32291;52.010;4.446;2023-06-22T05:22:05;77979.25;;;-144.67;100.00
47522;BME280;32291;52.010;4.446;2023-06-22T05:23:07;77974.97;;;-144.67;100.00
47522;BME280;32291;52.010;4.446;2023-06-22T05:24:09;77966.41;;;-144.67;100.00
47522;BME280;32291;52.010;4.446;2023-06-22T05:25:11;77968.53;;;-144.67;100.00
47522;BME280;32291;52.010;4.446;2023-06-22T05:26:13;77964.25;;;-144.67;100.00
47522;BME280;32291;52.010;4.446;2023-06-22T05:27:15;77964.25;;;-144.67;100.00
47522;BME280;32291;52.010;4.446;2023-06-22T05:28:17;77964.25;;;-144.67;100.00